sensor_id;sensor_type;location;lat;lon;timestamp;P1;durP1;ratioP1;P2;durP2;ratioP2
22284;SDS011;11311;52.192;20.900;2023-06-10T00:00:15;13.07;;;10.45;;
22284;SDS011;11311;52.192;20.900;2023-06-10T00:02:45;11.70;;;10.55;;
22284;SDS011;11311;52.192;20.900;2023-06-10T00:05:14;13.85;;;10.73;;
22284;SDS011;11311;52.192;20.900;2023-06-10T00:07:45;10.43;;;9.43;;
22284;SDS011;11311;52.192;20.900;2023-06-10T00:10:16;11.65;;;10.55;;
22284;SDS011;11311;52.192;20.900;2023-06-10T00:12:45;13.15;;;10.85;;
22284;SDS011;11311;52.192;20.900;2023-06-10T00:15:14;10.93;;;9.82;;
22284;SDS011;11311;52.192;20.900;2023-06-10T00:17:43;12.25;;;11.15;;
22284;SDS011;11311;52.192;20.900;2023-06-10T00:20:12;12.55;;;11.07;;
22284;SDS011;11311;52.192;20.900;2023-06-10T00:22:41;11.98;;;10.40;;
22284;SDS011;11311;52.192;20.900;2023-06-10T00:25:14;17.60;;;9.82;;
22284;SDS011;11311;52.192;20.900;2023-06-10T00:27:44;10.10;;;9.05;;
22284;SDS011;11311;52.192;20.900;2023-06-10T00:30:13;12.88;;;9.57;;
22284;SDS011;11311;52.192;20.900;2023-06-10T00:32:42;14.73;;;8.53;;
22284;SDS011;11311;52.192;20.900;2023-06-10T00:35:11;12.38;;;9.38;;
22284;SDS011;11311;52.192;20.900;2023-06-10T00:37:40;10.48;;;9.18;;
22284;SDS011;11311;52.192;20.900;2023-06-10T00:40:09;11.35;;;8.40;;
22284;SDS011;11311;52.192;20.900;2023-06-10T00:42:40;8.32;;;7.35;;
22284;SDS011;11311;52.192;20.900;2023-06-10T00:45:09;9.25;;;7.50;;
22284;SDS011;11311;52.192;20.900;2023-06-10T00:47:39;10.20;;;8.40;;
22284;SDS011;11311;52.192;20.900;2023-06-10T00:50:08;14.20;;;8.00;;
22284;SDS011;11311;52.192;20.900;2023-06-10T00:52:37;8.35;;;6.70;;
22284;SDS011;11311;52.192;20.900;2023-06-10T00:55:08;9.77;;;6.72;;
22284;SDS011;11311;52.192;20.900;2023-06-10T00:57:39;8.38;;;7.32;;
22284;SDS011;11311;52.192;20.900;2023-06-10T01:00:12;9.68;;;6.60;;
22284;SDS011;11311;52.192;20.900;2023-06-10T01:02:42;9.73;;;6.45;;
22284;SDS011;11311;52.192;20.900;2023-06-10T01:05:11;8.13;;;5.93;;
22284;SDS011;11311;52.192;20.900;2023-06-10T01:07:43;8.63;;;6.55;;
22284;SDS011;11311;52.192;20.900;2023-06-10T01:10:16;9.52;;;6.68;;
22284;SDS011;11311;52.192;20.900;2023-06-10T01:12:52;11.05;;;6.07;;
22284;SDS011;11311;52.192;20.900;2023-06-10T01:15:26;12.82;;;5.95;;
22284;SDS011;11311;52.192;20.900;2023-06-10T01:17:56;7.43;;;5.57;;
22284;SDS011;11311;52.192;20.900;2023-06-10T01:20:27;10.98;;;5.75;;
22284;SDS011;11311;52.192;20.900;2023-06-10T01:23:01;8.60;;;6.50;;
22284;SDS011;11311;52.192;20.900;2023-06-10T01:25:30;11.13;;;6.72;;
22284;SDS011;11311;52.192;20.900;2023-06-10T01:28:04;10.43;;;6.22;;
22284;SDS011;11311;52.192;20.900;2023-06-10T01:30:37;12.00;;;5.80;;
22284;SDS011;11311;52.192;20.900;2023-06-10T01:33:17;10.73;;;5.78;;
22284;SDS011;11311;52.192;20.900;2023-06-10T01:35:48;12.90;;;6.30;;
22284;SDS011;11311;52.192;20.900;2023-06-10T01:38:20;8.05;;;5.85;;
22284;SDS011;11311;52.192;20.900;2023-06-10T01:40:49;7.85;;;5.68;;
22284;SDS011;11311;52.192;20.900;2023-06-10T01:43:21;13.63;;;5.07;;
22284;SDS011;11311;52.192;20.900;2023-06-10T01:45:50;14.23;;;6.80;;
22284;SDS011;11311;52.192;20.900;2023-06-10T01:48:19;12.68;;;5.75;;
22284;SDS011;11311;52.192;20.900;2023-06-10T01:50:48;8.57;;;5.57;;
22284;SDS011;11311;52.192;20.900;2023-06-10T01:53:17;12.73;;;5.63;;
22284;SDS011;11311;52.192;20.900;2023-06-10T01:55:48;9.18;;;5.72;;
22284;SDS011;11311;52.192;20.900;2023-06-10T01:58:18;16.90;;;5.18;;
22284;SDS011;11311;52.192;20.900;2023-06-10T02:00:47;10.85;;;6.38;;
22284;SDS011;11311;52.192;20.900;2023-06-10T02:03:16;7.70;;;5.63;;
22284;SDS011;11311;52.192;20.900;2023-06-10T02:05:46;7.90;;;5.53;;
22284;SDS011;11311;52.192;20.900;2023-06-10T02:08:15;13.40;;;6.20;;
22284;SDS011;11311;52.192;20.900;2023-06-10T02:10:44;10.38;;;5.78;;
22284;SDS011;11311;52.192;20.900;2023-06-10T02:13:14;11.50;;;5.65;;
22284;SDS011;11311;52.192;20.900;2023-06-10T02:18:12;5.70;;;5.10;;
22284;SDS011;11311;52.192;20.900;2023-06-10T02:20:41;9.43;;;5.78;;
22284;SDS011;11311;52.192;20.900;2023-06-10T02:23:10;7.22;;;5.43;;
22284;SDS011;11311;52.192;20.900;2023-06-10T02:25:38;11.85;;;5.95;;
22284;SDS011;11311;52.192;20.900;2023-06-10T02:28:08;9.33;;;5.47;;
22284;SDS011;11311;52.192;20.900;2023-06-10T02:30:40;7.05;;;5.50;;
22284;SDS011;11311;52.192;20.900;2023-06-10T02:33:09;7.95;;;6.00;;
22284;SDS011;11311;52.192;20.900;2023-06-10T02:35:39;15.05;;;5.32;;
22284;SDS011;11311;52.192;20.900;2023-06-10T02:38:08;15.55;;;5.70;;
22284;SDS011;11311;52.192;20.900;2023-06-10T02:40:37;11.13;;;6.18;;
22284;SDS011;11311;52.192;20.900;2023-06-10T02:43:06;13.20;;;6.22;;
22284;SDS011;11311;52.192;20.900;2023-06-10T02:45:36;16.23;;;6.10;;
22284;SDS011;11311;52.192;20.900;2023-06-10T02:50:36;12.88;;;5.50;;
22284;SDS011;11311;52.192;20.900;2023-06-10T02:53:23;12.15;;;6.15;;
22284;SDS011;11311;52.192;20.900;2023-06-10T02:55:57;14.32;;;5.53;;
22284;SDS011;11311;52.192;20.900;2023-06-10T02:58:27;8.63;;;5.50;;
22284;SDS011;11311;52.192;20.900;2023-06-10T03:00:56;14.87;;;5.93;;
22284;SDS011;11311;52.192;20.900;2023-06-10T03:03:29;12.07;;;5.40;;
22284;SDS011;11311;52.192;20.900;2023-06-10T03:06:06;8.43;;;5.70;;
22284;SDS011;11311;52.192;20.900;2023-06-10T03:08:35;20.67;;;5.85;;
22284;SDS011;11311;52.192;20.900;2023-06-10T03:11:09;11.82;;;5.03;;
22284;SDS011;11311;52.192;20.900;2023-06-10T03:13:38;8.10;;;5.05;;
22284;SDS011;11311;52.192;20.900;2023-06-10T03:16:11;8.68;;;5.60;;
22284;SDS011;11311;52.192;20.900;2023-06-10T03:18:42;12.07;;;5.63;;
22284;SDS011;11311;52.192;20.900;2023-06-10T03:21:12;8.30;;;5.70;;
22284;SDS011;11311;52.192;20.900;2023-06-10T03:23:41;11.15;;;5.63;;
22284;SDS011;11311;52.192;20.900;2023-06-10T03:26:10;19.48;;;6.07;;
22284;SDS011;11311;52.192;20.900;2023-06-10T03:28:43;8.05;;;5.82;;
22284;SDS011;11311;52.192;20.900;2023-06-10T03:31:13;14.32;;;5.60;;
22284;SDS011;11311;52.192;20.900;2023-06-10T03:33:45;15.55;;;4.90;;
22284;SDS011;11311;52.192;20.900;2023-06-10T03:36:15;7.25;;;5.22;;
22284;SDS011;11311;52.192;20.900;2023-06-10T03:38:44;8.05;;;5.30;;
22284;SDS011;11311;52.192;20.900;2023-06-10T03:41:13;12.55;;;6.32;;
22284;SDS011;11311;52.192;20.900;2023-06-10T03:43:43;11.75;;;5.45;;
22284;SDS011;11311;52.192;20.900;2023-06-10T03:46:14;5.53;;;4.97;;
22284;SDS011;11311;52.192;20.900;2023-06-10T03:48:46;14.98;;;4.93;;
22284;SDS011;11311;52.192;20.900;2023-06-10T03:51:16;15.27;;;6.05;;
22284;SDS011;11311;52.192;20.900;2023-06-10T03:53:45;7.93;;;4.78;;
22284;SDS011;11311;52.192;20.900;2023-06-10T03:56:14;9.50;;;5.20;;
22284;SDS011;11311;52.192;20.900;2023-06-10T03:58:42;9.30;;;5.13;;
22284;SDS011;11311;52.192;20.900;2023-06-10T04:01:14;14.23;;;5.15;;
22284;SDS011;11311;52.192;20.900;2023-06-10T04:03:46;8.18;;;5.15;;
22284;SDS011;11311;52.192;20.900;2023-06-10T04:06:16;9.88;;;5.07;;
22284;SDS011;11311;52.192;20.900;2023-06-10T04:08:45;14.23;;;5.45;;
22284;SDS011;11311;52.192;20.900;2023-06-10T04:11:14;12.32;;;4.60;;
22284;SDS011;11311;52.192;20.900;2023-06-10T04:13:44;8.05;;;5.00;;
22284;SDS011;11311;52.192;20.900;2023-06-10T04:16:13;9.40;;;5.20;;
22284;SDS011;11311;52.192;20.900;2023-06-10T04:18:43;8.65;;;5.07;;
22284;SDS011;11311;52.192;20.900;2023-06-10T04:21:13;7.55;;;5.47;;
22284;SDS011;11311;52.192;20.900;2023-06-10T04:26:11;10.35;;;5.22;;
22284;SDS011;11311;52.192;20.900;2023-06-10T04:28:40;11.35;;;4.75;;
22284;SDS011;11311;52.192;20.900;2023-06-10T04:31:09;8.88;;;4.78;;
22284;SDS011;11311;52.192;20.900;2023-06-10T04:33:38;6.15;;;4.80;;
22284;SDS011;11311;52.192;20.900;2023-06-10T04:36:08;13.40;;;5.28;;
22284;SDS011;11311;52.192;20.900;2023-06-10T04:38:38;11.38;;;5.00;;
22284;SDS011;11311;52.192;20.900;2023-06-10T04:41:08;11.15;;;5.07;;
22284;SDS011;11311;52.192;20.900;2023-06-10T04:43:37;7.75;;;5.03;;
22284;SDS011;11311;52.192;20.900;2023-06-10T04:46:06;8.77;;;6.25;;
22284;SDS011;11311;52.192;20.900;2023-06-10T04:48:36;12.13;;;5.28;;
22284;SDS011;11311;52.192;20.900;2023-06-10T04:51:05;7.30;;;4.57;;
22284;SDS011;11311;52.192;20.900;2023-06-10T04:53:34;8.15;;;4.88;;
22284;SDS011;11311;52.192;20.900;2023-06-10T04:56:05;10.73;;;5.53;;
22284;SDS011;11311;52.192;20.900;2023-06-10T04:58:34;8.52;;;5.22;;
22284;SDS011;11311;52.192;20.900;2023-06-10T05:01:03;13.05;;;5.70;;
22284;SDS011;11311;52.192;20.900;2023-06-10T05:03:32;8.70;;;5.00;;
22284;SDS011;11311;52.192;20.900;2023-06-10T05:06:01;9.82;;;4.32;;
22284;SDS011;11311;52.192;20.900;2023-06-10T05:08:30;9.27;;;5.28;;
22284;SDS011;11311;52.192;20.900;2023-06-10T05:11:00;11.35;;;5.18;;
22284;SDS011;11311;52.192;20.900;2023-06-10T05:13:30;8.43;;;4.85;;
22284;SDS011;11311;52.192;20.900;2023-06-10T05:15:59;11.45;;;5.15;;
22284;SDS011;11311;52.192;20.900;2023-06-10T05:18:28;9.75;;;5.13;;
22284;SDS011;11311;52.192;20.900;2023-06-10T05:20:57;8.25;;;4.40;;
22284;SDS011;11311;52.192;20.900;2023-06-10T05:23:26;10.40;;;5.03;;
22284;SDS011;11311;52.192;20.900;2023-06-10T05:25:54;11.45;;;5.50;;
22284;SDS011;11311;52.192;20.900;2023-06-10T05:28:23;12.23;;;5.43;;
22284;SDS011;11311;52.192;20.900;2023-06-10T05:30:54;5.63;;;5.05;;
22284;SDS011;11311;52.192;20.900;2023-06-10T05:33:23;13.43;;;5.68;;
22284;SDS011;11311;52.192;20.900;2023-06-10T05:35:52;11.35;;;5.40;;
22284;SDS011;11311;52.192;20.900;2023-06-10T05:38:21;6.70;;;5.22;;
22284;SDS011;11311;52.192;20.900;2023-06-10T05:40:50;13.80;;;6.00;;
22284;SDS011;11311;52.192;20.900;2023-06-10T05:43:19;11.38;;;4.88;;
22284;SDS011;11311;52.192;20.900;2023-06-10T05:45:48;14.50;;;5.40;;
22284;SDS011;11311;52.192;20.900;2023-06-10T05:48:19;9.88;;;4.75;;
22284;SDS011;11311;52.192;20.900;2023-06-10T05:50:48;7.32;;;5.05;;
22284;SDS011;11311;52.192;20.900;2023-06-10T05:53:17;15.88;;;5.70;;
22284;SDS011;11311;52.192;20.900;2023-06-10T05:55:45;16.20;;;5.28;;
22284;SDS011;11311;52.192;20.900;2023-06-10T05:58:15;9.07;;;5.40;;
22284;SDS011;11311;52.192;20.900;2023-06-10T06:00:43;11.80;;;4.93;;
22284;SDS011;11311;52.192;20.900;2023-06-10T06:03:12;8.82;;;4.90;;
22284;SDS011;11311;52.192;20.900;2023-06-10T06:05:43;14.45;;;5.93;;
22284;SDS011;11311;52.192;20.900;2023-06-10T06:08:13;12.65;;;4.32;;
22284;SDS011;11311;52.192;20.900;2023-06-10T06:10:45;8.48;;;4.88;;
22284;SDS011;11311;52.192;20.900;2023-06-10T06:13:15;8.00;;;4.85;;
22284;SDS011;11311;52.192;20.900;2023-06-10T06:15:44;8.27;;;4.82;;
22284;SDS011;11311;52.192;20.900;2023-06-10T06:18:13;10.52;;;5.38;;
22284;SDS011;11311;52.192;20.900;2023-06-10T06:20:43;9.65;;;5.38;;
22284;SDS011;11311;52.192;20.900;2023-06-10T06:23:12;9.43;;;4.90;;
22284;SDS011;11311;52.192;20.900;2023-06-10T06:25:41;13.85;;;5.00;;
22284;SDS011;11311;52.192;20.900;2023-06-10T06:28:10;7.32;;;5.15;;
22284;SDS011;11311;52.192;20.900;2023-06-10T06:30:39;12.02;;;6.43;;
22284;SDS011;11311;52.192;20.900;2023-06-10T06:33:08;6.50;;;5.07;;
22284;SDS011;11311;52.192;20.900;2023-06-10T06:35:37;26.58;;;5.97;;
22284;SDS011;11311;52.192;20.900;2023-06-10T06:38:10;7.03;;;5.20;;
22284;SDS011;11311;52.192;20.900;2023-06-10T06:40:39;14.93;;;4.85;;
22284;SDS011;11311;52.192;20.900;2023-06-10T06:43:08;7.45;;;5.45;;
22284;SDS011;11311;52.192;20.900;2023-06-10T06:45:44;8.77;;;5.13;;
22284;SDS011;11311;52.192;20.900;2023-06-10T06:48:13;8.68;;;5.35;;
22284;SDS011;11311;52.192;20.900;2023-06-10T06:50:43;8.82;;;5.10;;
22284;SDS011;11311;52.192;20.900;2023-06-10T06:53:13;17.35;;;5.72;;
22284;SDS011;11311;52.192;20.900;2023-06-10T06:55:42;11.38;;;5.18;;
22284;SDS011;11311;52.192;20.900;2023-06-10T06:58:11;13.48;;;5.38;;
22284;SDS011;11311;52.192;20.900;2023-06-10T07:00:40;9.07;;;4.90;;
22284;SDS011;11311;52.192;20.900;2023-06-10T07:03:09;18.35;;;6.07;;
22284;SDS011;11311;52.192;20.900;2023-06-10T07:05:38;10.48;;;4.75;;
22284;SDS011;11311;52.192;20.900;2023-06-10T07:08:07;7.57;;;4.97;;
22284;SDS011;11311;52.192;20.900;2023-06-10T07:10:37;13.00;;;5.50;;
22284;SDS011;11311;52.192;20.900;2023-06-10T07:13:06;10.80;;;5.57;;
22284;SDS011;11311;52.192;20.900;2023-06-10T07:15:36;9.30;;;4.72;;
22284;SDS011;11311;52.192;20.900;2023-06-10T07:18:05;8.10;;;5.10;;
22284;SDS011;11311;52.192;20.900;2023-06-10T07:20:34;7.30;;;5.13;;
22284;SDS011;11311;52.192;20.900;2023-06-10T07:23:03;13.02;;;4.85;;
22284;SDS011;11311;52.192;20.900;2023-06-10T07:25:32;7.65;;;5.10;;
22284;SDS011;11311;52.192;20.900;2023-06-10T07:28:02;7.72;;;5.30;;
22284;SDS011;11311;52.192;20.900;2023-06-10T07:30:31;9.65;;;5.03;;
22284;SDS011;11311;52.192;20.900;2023-06-10T07:33:00;10.10;;;5.32;;
22284;SDS011;11311;52.192;20.900;2023-06-10T07:35:30;10.13;;;5.28;;
22284;SDS011;11311;52.192;20.900;2023-06-10T07:37:59;14.95;;;5.47;;
22284;SDS011;11311;52.192;20.900;2023-06-10T07:40:28;13.50;;;5.85;;
22284;SDS011;11311;52.192;20.900;2023-06-10T07:43:01;14.85;;;5.30;;
22284;SDS011;11311;52.192;20.900;2023-06-10T07:45:30;10.82;;;5.32;;
22284;SDS011;11311;52.192;20.900;2023-06-10T07:47:59;14.38;;;5.30;;
22284;SDS011;11311;52.192;20.900;2023-06-10T07:50:29;12.40;;;5.07;;
22284;SDS011;11311;52.192;20.900;2023-06-10T07:52:58;16.00;;;5.30;;
22284;SDS011;11311;52.192;20.900;2023-06-10T07:55:27;10.82;;;5.32;;
22284;SDS011;11311;52.192;20.900;2023-06-10T07:57:56;13.98;;;5.43;;
22284;SDS011;11311;52.192;20.900;2023-06-10T08:00:26;7.88;;;4.90;;
22284;SDS011;11311;52.192;20.900;2023-06-10T08:02:55;8.60;;;5.00;;
22284;SDS011;11311;52.192;20.900;2023-06-10T08:05:24;6.60;;;5.50;;
22284;SDS011;11311;52.192;20.900;2023-06-10T08:07:53;8.57;;;4.72;;
22284;SDS011;11311;52.192;20.900;2023-06-10T08:10:22;7.70;;;5.15;;
22284;SDS011;11311;52.192;20.900;2023-06-10T08:12:51;6.72;;;4.75;;
22284;SDS011;11311;52.192;20.900;2023-06-10T08:15:20;6.88;;;4.60;;
22284;SDS011;11311;52.192;20.900;2023-06-10T08:17:51;11.95;;;4.68;;
22284;SDS011;11311;52.192;20.900;2023-06-10T08:20:20;7.70;;;4.63;;
22284;SDS011;11311;52.192;20.900;2023-06-10T08:22:48;11.20;;;4.85;;
22284;SDS011;11311;52.192;20.900;2023-06-10T08:25:17;9.05;;;5.15;;
22284;SDS011;11311;52.192;20.900;2023-06-10T08:27:48;8.43;;;5.03;;
22284;SDS011;11311;52.192;20.900;2023-06-10T08:30:18;9.15;;;5.15;;
22284;SDS011;11311;52.192;20.900;2023-06-10T08:32:47;7.57;;;4.60;;
22284;SDS011;11311;52.192;20.900;2023-06-10T08:35:18;9.68;;;4.60;;
22284;SDS011;11311;52.192;20.900;2023-06-10T08:37:47;11.40;;;4.68;;
22284;SDS011;11311;52.192;20.900;2023-06-10T08:40:16;8.27;;;5.13;;
22284;SDS011;11311;52.192;20.900;2023-06-10T08:42:48;12.90;;;5.13;;
22284;SDS011;11311;52.192;20.900;2023-06-10T08:45:18;8.18;;;4.80;;
22284;SDS011;11311;52.192;20.900;2023-06-10T08:47:48;12.23;;;5.07;;
22284;SDS011;11311;52.192;20.900;2023-06-10T08:50:21;8.85;;;5.15;;
22284;SDS011;11311;52.192;20.900;2023-06-10T08:52:53;7.68;;;5.22;;
22284;SDS011;11311;52.192;20.900;2023-06-10T08:55:23;11.25;;;5.00;;
22284;SDS011;11311;52.192;20.900;2023-06-10T08:57:59;10.07;;;4.18;;
22284;SDS011;11311;52.192;20.900;2023-06-10T09:00:28;8.88;;;4.75;;
22284;SDS011;11311;52.192;20.900;2023-06-10T09:02:58;11.90;;;5.35;;
22284;SDS011;11311;52.192;20.900;2023-06-10T09:05:34;9.82;;;4.65;;
22284;SDS011;11311;52.192;20.900;2023-06-10T09:08:05;12.75;;;5.03;;
22284;SDS011;11311;52.192;20.900;2023-06-10T09:10:34;5.85;;;4.65;;
22284;SDS011;11311;52.192;20.900;2023-06-10T09:13:03;11.23;;;4.65;;
22284;SDS011;11311;52.192;20.900;2023-06-10T09:15:32;9.97;;;5.13;;
22284;SDS011;11311;52.192;20.900;2023-06-10T09:18:02;7.50;;;4.80;;
22284;SDS011;11311;52.192;20.900;2023-06-10T09:20:33;14.38;;;5.68;;
22284;SDS011;11311;52.192;20.900;2023-06-10T09:23:03;12.68;;;5.78;;
22284;SDS011;11311;52.192;20.900;2023-06-10T09:25:35;17.45;;;5.95;;
22284;SDS011;11311;52.192;20.900;2023-06-10T09:28:08;12.68;;;4.43;;
22284;SDS011;11311;52.192;20.900;2023-06-10T09:30:41;13.18;;;5.05;;
22284;SDS011;11311;52.192;20.900;2023-06-10T09:33:11;10.87;;;4.73;;
22284;SDS011;11311;52.192;20.900;2023-06-10T09:35:46;14.90;;;6.00;;
22284;SDS011;11311;52.192;20.900;2023-06-10T09:38:19;8.65;;;4.90;;
22284;SDS011;11311;52.192;20.900;2023-06-10T09:40:48;7.28;;;5.13;;
22284;SDS011;11311;52.192;20.900;2023-06-10T09:45:47;12.68;;;4.55;;
22284;SDS011;11311;52.192;20.900;2023-06-10T09:48:17;23.15;;;4.72;;
22284;SDS011;11311;52.192;20.900;2023-06-10T09:50:48;8.68;;;5.13;;
22284;SDS011;11311;52.192;20.900;2023-06-10T09:53:17;9.43;;;4.47;;
22284;SDS011;11311;52.192;20.900;2023-06-10T09:55:46;9.40;;;4.50;;
22284;SDS011;11311;52.192;20.900;2023-06-10T09:58:15;6.53;;;4.50;;
22284;SDS011;11311;52.192;20.900;2023-06-10T10:00:44;9.93;;;4.55;;
22284;SDS011;11311;52.192;20.900;2023-06-10T10:03:22;12.60;;;4.63;;
22284;SDS011;11311;52.192;20.900;2023-06-10T10:05:59;9.35;;;4.30;;
22284;SDS011;11311;52.192;20.900;2023-06-10T10:08:29;9.65;;;4.38;;
22284;SDS011;11311;52.192;20.900;2023-06-10T10:10:58;8.77;;;4.28;;
22284;SDS011;11311;52.192;20.900;2023-06-10T10:13:27;5.60;;;3.75;;
22284;SDS011;11311;52.192;20.900;2023-06-10T10:15:57;8.73;;;4.00;;
22284;SDS011;11311;52.192;20.900;2023-06-10T10:18:29;6.57;;;3.50;;
22284;SDS011;11311;52.192;20.900;2023-06-10T10:21:00;7.10;;;3.72;;
22284;SDS011;11311;52.192;20.900;2023-06-10T10:23:32;5.88;;;3.80;;
22284;SDS011;11311;52.192;20.900;2023-06-10T10:26:04;16.02;;;4.88;;
22284;SDS011;11311;52.192;20.900;2023-06-10T10:28:37;15.30;;;4.35;;
22284;SDS011;11311;52.192;20.900;2023-06-10T10:31:11;4.68;;;3.30;;
22284;SDS011;11311;52.192;20.900;2023-06-10T10:36:12;5.35;;;3.47;;
22284;SDS011;11311;52.192;20.900;2023-06-10T10:38:42;13.18;;;3.92;;
22284;SDS011;11311;52.192;20.900;2023-06-10T10:43:40;5.35;;;3.53;;
22284;SDS011;11311;52.192;20.900;2023-06-10T10:46:11;6.40;;;3.72;;
22284;SDS011;11311;52.192;20.900;2023-06-10T10:48:42;10.48;;;3.88;;
22284;SDS011;11311;52.192;20.900;2023-06-10T10:51:13;5.72;;;3.97;;
22284;SDS011;11311;52.192;20.900;2023-06-10T10:53:44;5.22;;;3.70;;
22284;SDS011;11311;52.192;20.900;2023-06-10T10:56:40;9.23;;;4.03;;
22284;SDS011;11311;52.192;20.900;2023-06-10T10:59:54;6.47;;;3.30;;
22284;SDS011;11311;52.192;20.900;2023-06-10T11:02:33;3.53;;;3.10;;
22284;SDS011;11311;52.192;20.900;2023-06-10T11:05:07;8.50;;;3.40;;
22284;SDS011;11311;52.192;20.900;2023-06-10T11:07:39;6.97;;;4.07;;
22284;SDS011;11311;52.192;20.900;2023-06-10T11:10:08;3.90;;;3.10;;
22284;SDS011;11311;52.192;20.900;2023-06-10T11:12:42;5.00;;;3.03;;
22284;SDS011;11311;52.192;20.900;2023-06-10T11:20:44;6.00;;;3.35;;
22284;SDS011;11311;52.192;20.900;2023-06-10T11:23:25;8.25;;;3.20;;
22284;SDS011;11311;52.192;20.900;2023-06-10T11:26:18;5.25;;;3.47;;
22284;SDS011;11311;52.192;20.900;2023-06-10T11:29:07;6.72;;;3.85;;
22284;SDS011;11311;52.192;20.900;2023-06-10T11:31:43;9.02;;;4.10;;
22284;SDS011;11311;52.192;20.900;2023-06-10T11:34:14;6.70;;;3.20;;
22284;SDS011;11311;52.192;20.900;2023-06-10T11:36:44;4.30;;;3.15;;
22284;SDS011;11311;52.192;20.900;2023-06-10T11:41:43;6.45;;;3.67;;
22284;SDS011;11311;52.192;20.900;2023-06-10T11:44:14;5.15;;;2.80;;
22284;SDS011;11311;52.192;20.900;2023-06-10T11:46:47;4.35;;;3.15;;
22284;SDS011;11311;52.192;20.900;2023-06-10T11:49:17;7.75;;;3.28;;
22284;SDS011;11311;52.192;20.900;2023-06-10T11:51:46;14.73;;;3.70;;
22284;SDS011;11311;52.192;20.900;2023-06-10T11:54:20;8.23;;;3.72;;
22284;SDS011;11311;52.192;20.900;2023-06-10T11:56:50;4.18;;;3.78;;
22284;SDS011;11311;52.192;20.900;2023-06-10T12:01:47;5.03;;;2.90;;
22284;SDS011;11311;52.192;20.900;2023-06-10T12:04:16;5.15;;;2.67;;
22284;SDS011;11311;52.192;20.900;2023-06-10T12:06:46;4.25;;;3.05;;
22284;SDS011;11311;52.192;20.900;2023-06-10T12:09:17;4.72;;;2.97;;
22284;SDS011;11311;52.192;20.900;2023-06-10T12:11:51;6.40;;;3.33;;
22284;SDS011;11311;52.192;20.900;2023-06-10T12:17:35;5.05;;;3.03;;
22284;SDS011;11311;52.192;20.900;2023-06-10T12:20:06;4.30;;;3.47;;
22284;SDS011;11311;52.192;20.900;2023-06-10T12:22:37;8.23;;;3.45;;
22284;SDS011;11311;52.192;20.900;2023-06-10T12:25:07;4.03;;;3.17;;
22284;SDS011;11311;52.192;20.900;2023-06-10T12:27:39;5.85;;;3.30;;
22284;SDS011;11311;52.192;20.900;2023-06-10T12:30:10;9.75;;;3.60;;
22284;SDS011;11311;52.192;20.900;2023-06-10T12:32:40;3.90;;;3.22;;
22284;SDS011;11311;52.192;20.900;2023-06-10T12:35:10;7.20;;;3.38;;
22284;SDS011;11311;52.192;20.900;2023-06-10T12:37:40;7.50;;;3.85;;
22284;SDS011;11311;52.192;20.900;2023-06-10T12:40:10;3.55;;;3.25;;
22284;SDS011;11311;52.192;20.900;2023-06-10T12:42:41;9.43;;;3.78;;
22284;SDS011;11311;52.192;20.900;2023-06-10T12:45:10;5.05;;;3.60;;
22284;SDS011;11311;52.192;20.900;2023-06-10T12:47:40;6.57;;;4.10;;
22284;SDS011;11311;52.192;20.900;2023-06-10T12:50:10;5.03;;;3.83;;
22284;SDS011;11311;52.192;20.900;2023-06-10T12:52:39;6.93;;;3.50;;
22284;SDS011;11311;52.192;20.900;2023-06-10T12:55:09;10.38;;;4.05;;
22284;SDS011;11311;52.192;20.900;2023-06-10T12:57:48;14.18;;;4.50;;
22284;SDS011;11311;52.192;20.900;2023-06-10T13:00:18;6.05;;;4.15;;
22284;SDS011;11311;52.192;20.900;2023-06-10T13:02:48;7.68;;;4.38;;
22284;SDS011;11311;52.192;20.900;2023-06-10T13:05:18;6.75;;;4.43;;
22284;SDS011;11311;52.192;20.900;2023-06-10T13:07:48;5.78;;;4.20;;
22284;SDS011;11311;52.192;20.900;2023-06-10T13:10:17;6.03;;;4.40;;
22284;SDS011;11311;52.192;20.900;2023-06-10T13:12:52;7.88;;;4.03;;
22284;SDS011;11311;52.192;20.900;2023-06-10T13:15:22;6.22;;;4.30;;
22284;SDS011;11311;52.192;20.900;2023-06-10T13:17:53;9.65;;;4.30;;
22284;SDS011;11311;52.192;20.900;2023-06-10T13:20:22;9.23;;;4.78;;
22284;SDS011;11311;52.192;20.900;2023-06-10T13:22:51;8.50;;;4.70;;
22284;SDS011;11311;52.192;20.900;2023-06-10T13:25:20;11.98;;;4.75;;
22284;SDS011;11311;52.192;20.900;2023-06-10T13:27:50;10.73;;;4.28;;
22284;SDS011;11311;52.192;20.900;2023-06-10T13:30:20;13.35;;;4.57;;
22284;SDS011;11311;52.192;20.900;2023-06-10T13:32:49;5.43;;;4.30;;
22284;SDS011;11311;52.192;20.900;2023-06-10T13:35:18;10.88;;;4.13;;
22284;SDS011;11311;52.192;20.900;2023-06-10T13:37:47;8.50;;;4.73;;
22284;SDS011;11311;52.192;20.900;2023-06-10T13:40:16;8.13;;;4.18;;
22284;SDS011;11311;52.192;20.900;2023-06-10T13:42:46;7.40;;;4.22;;
22284;SDS011;11311;52.192;20.900;2023-06-10T13:45:18;6.70;;;3.92;;
22284;SDS011;11311;52.192;20.900;2023-06-10T13:47:48;11.75;;;4.05;;
22284;SDS011;11311;52.192;20.900;2023-06-10T13:50:17;7.10;;;4.18;;
22284;SDS011;11311;52.192;20.900;2023-06-10T13:52:46;4.53;;;3.97;;
22284;SDS011;11311;52.192;20.900;2023-06-10T13:55:15;6.53;;;4.18;;
22284;SDS011;11311;52.192;20.900;2023-06-10T13:57:46;7.28;;;3.65;;
22284;SDS011;11311;52.192;20.900;2023-06-10T14:00:15;4.55;;;3.60;;
22284;SDS011;11311;52.192;20.900;2023-06-10T14:02:45;7.90;;;3.63;;
22284;SDS011;11311;52.192;20.900;2023-06-10T14:05:16;7.85;;;3.20;;
22284;SDS011;11311;52.192;20.900;2023-06-10T14:07:45;5.63;;;4.10;;
22284;SDS011;11311;52.192;20.900;2023-06-10T14:10:14;5.93;;;3.83;;
22284;SDS011;11311;52.192;20.900;2023-06-10T14:12:43;9.43;;;4.20;;
22284;SDS011;11311;52.192;20.900;2023-06-10T14:15:12;5.15;;;4.03;;
22284;SDS011;11311;52.192;20.900;2023-06-10T14:17:41;9.75;;;4.72;;
22284;SDS011;11311;52.192;20.900;2023-06-10T14:20:11;5.57;;;3.08;;
22284;SDS011;11311;52.192;20.900;2023-06-10T14:22:41;6.85;;;4.03;;
22284;SDS011;11311;52.192;20.900;2023-06-10T14:25:10;8.25;;;4.03;;
22284;SDS011;11311;52.192;20.900;2023-06-10T14:27:40;7.45;;;3.65;;
22284;SDS011;11311;52.192;20.900;2023-06-10T14:32:38;12.05;;;4.00;;
22284;SDS011;11311;52.192;20.900;2023-06-10T14:35:07;13.68;;;4.57;;
22284;SDS011;11311;52.192;20.900;2023-06-10T14:37:37;7.78;;;4.32;;
22284;SDS011;11311;52.192;20.900;2023-06-10T14:40:08;7.32;;;4.15;;
22284;SDS011;11311;52.192;20.900;2023-06-10T14:42:37;6.82;;;4.03;;
22284;SDS011;11311;52.192;20.900;2023-06-10T14:45:07;8.65;;;4.15;;
22284;SDS011;11311;52.192;20.900;2023-06-10T14:47:38;8.88;;;3.97;;
22284;SDS011;11311;52.192;20.900;2023-06-10T14:50:07;6.30;;;4.07;;
22284;SDS011;11311;52.192;20.900;2023-06-10T14:52:36;9.15;;;4.20;;
22284;SDS011;11311;52.192;20.900;2023-06-10T14:55:06;8.60;;;4.05;;
22284;SDS011;11311;52.192;20.900;2023-06-10T14:57:37;7.38;;;4.38;;
22284;SDS011;11311;52.192;20.900;2023-06-10T15:00:06;9.18;;;3.70;;
22284;SDS011;11311;52.192;20.900;2023-06-10T15:02:36;7.57;;;4.05;;
22284;SDS011;11311;52.192;20.900;2023-06-10T15:05:05;9.40;;;4.43;;
22284;SDS011;11311;52.192;20.900;2023-06-10T15:10:04;6.45;;;4.00;;
22284;SDS011;11311;52.192;20.900;2023-06-10T15:12:35;6.82;;;4.40;;
22284;SDS011;11311;52.192;20.900;2023-06-10T15:15:04;6.68;;;3.92;;
22284;SDS011;11311;52.192;20.900;2023-06-10T15:17:34;9.00;;;4.63;;
22284;SDS011;11311;52.192;20.900;2023-06-10T15:20:04;5.95;;;4.35;;